createdAt,value
2022-10-11T00:02:17.626Z,100.00
2022-10-11T00:04:47.542Z,100.00
2022-10-11T00:07:17.303Z,100.00
2022-10-11T00:09:47.121Z,100.00
2022-10-11T00:12:16.806Z,100.00
2022-10-11T00:14:49.138Z,100.00
2022-10-11T00:17:18.835Z,100.00
2022-10-11T00:19:48.562Z,100.00
2022-10-11T00:22:18.243Z,100.00
2022-10-11T00:24:47.938Z,100.00
2022-10-11T00:27:17.672Z,100.00
2022-10-11T00:29:50.039Z,100.00
2022-10-11T00:32:20.381Z,100.00
2022-10-11T00:34:50.160Z,100.00
2022-10-11T00:37:20.405Z,100.00
2022-10-11T00:39:50.132Z,100.00
2022-10-11T00:42:21.833Z,100.00
2022-10-11T00:44:54.432Z,100.00
2022-10-11T00:47:27.385Z,100.00
2022-10-11T00:50:00.757Z,100.00
2022-10-11T00:52:34.068Z,100.00
2022-10-11T00:55:08.418Z,100.00
2022-10-11T00:57:42.670Z,100.00
2022-10-11T01:00:17.895Z,100.00
2022-10-11T01:02:47.809Z,100.00
2022-10-11T01:05:35.303Z,100.00
2022-10-11T01:08:05.571Z,100.00
2022-10-11T01:10:35.548Z,100.00
2022-10-11T01:13:16.128Z,100.00
2022-10-11T01:15:53.729Z,100.00
2022-10-11T01:18:31.714Z,100.00
2022-10-11T01:21:09.618Z,100.00
2022-10-11T01:24:09.151Z,100.00
2022-10-11T01:27:07.300Z,100.00
2022-10-11T01:29:49.548Z,100.00
2022-10-11T01:32:26.339Z,100.00
2022-10-11T01:35:01.861Z,100.00
2022-10-11T01:37:37.362Z,100.00
2022-10-11T01:40:12.461Z,100.00
2022-10-11T01:42:44.400Z,100.00
2022-10-11T01:45:18.438Z,100.00
2022-10-11T01:47:50.763Z,100.00
2022-10-11T01:50:48.314Z,100.00
2022-10-11T01:53:46.174Z,100.00
2022-10-11T01:56:25.366Z,100.00
2022-10-11T01:59:09.924Z,100.00
2022-10-11T02:01:53.068Z,100.00
2022-10-11T02:04:32.946Z,100.00
2022-10-11T02:07:09.519Z,100.00
2022-10-11T02:09:44.994Z,100.00
2022-10-11T02:12:20.930Z,100.00
2022-10-11T02:14:54.021Z,100.00
2022-10-11T02:17:28.208Z,100.00
2022-10-11T02:20:02.150Z,100.00
2022-10-11T02:22:38.455Z,100.00
2022-10-11T02:25:13.280Z,100.00
2022-10-11T02:27:46.371Z,100.00
2022-10-11T02:30:18.086Z,100.00
2022-10-11T02:32:50.220Z,100.00
2022-10-11T02:35:27.440Z,100.00
2022-10-11T02:38:01.952Z,100.00
2022-10-11T02:40:35.292Z,100.00
2022-10-11T02:43:07.372Z,100.00
2022-10-11T02:45:41.300Z,100.00
2022-10-11T02:48:13.944Z,100.00
2022-10-11T02:50:46.912Z,100.00
2022-10-11T02:53:16.585Z,100.00
2022-10-11T02:55:46.231Z,100.00
2022-10-11T02:58:15.988Z,100.00
2022-10-11T03:00:45.897Z,100.00
2022-10-11T03:03:15.614Z,100.00
2022-10-11T03:05:47.919Z,100.00
2022-10-11T03:08:18.725Z,100.00
2022-10-11T03:10:48.422Z,100.00
2022-10-11T03:13:18.594Z,100.00
2022-10-11T03:16:02.380Z,100.00
2022-10-11T03:18:33.557Z,100.00
2022-10-11T03:21:06.127Z,100.00
2022-10-11T03:23:35.901Z,100.00
2022-10-11T03:26:06.047Z,100.00
2022-10-11T03:28:36.104Z,100.00
2022-10-11T03:31:06.183Z,100.00
2022-10-11T03:33:36.491Z,100.00
2022-10-11T03:36:09.524Z,100.00
2022-10-11T03:38:39.357Z,100.00
2022-10-11T03:41:09.446Z,100.00
2022-10-11T03:43:39.157Z,100.00
2022-10-11T03:46:09.466Z,100.00
2022-10-11T03:48:39.336Z,100.00
2022-10-11T03:51:13.230Z,100.00
2022-10-11T03:53:43.016Z,100.00
2022-10-11T03:56:13.820Z,100.00
2022-10-11T03:58:44.259Z,100.00
2022-10-11T04:01:14.153Z,100.00
2022-10-11T04:03:44.094Z,100.00
2022-10-11T04:06:16.436Z,100.00
2022-10-11T04:08:46.078Z,100.00
2022-10-11T04:11:16.107Z,100.00
2022-10-11T04:13:45.747Z,100.00
2022-10-11T04:16:15.599Z,100.00
2022-10-11T04:18:45.255Z,100.00
2022-10-11T04:21:17.991Z,100.00
2022-10-11T04:23:47.783Z,100.00
2022-10-11T04:26:17.521Z,100.00
2022-10-11T04:28:47.378Z,100.00
2022-10-11T04:31:17.146Z,100.00
2022-10-11T04:33:46.779Z,100.00
2022-10-11T04:36:20.610Z,100.00
2022-10-11T04:38:50.314Z,100.00
2022-10-11T04:41:20.058Z,100.00
2022-10-11T04:43:50.057Z,100.00
2022-10-11T04:46:19.726Z,100.00
2022-10-11T04:48:49.299Z,100.00
2022-10-11T04:51:21.732Z,100.00
2022-10-11T04:53:51.516Z,100.00
2022-10-11T04:56:21.503Z,100.00
2022-10-11T04:58:54.241Z,100.00
2022-10-11T05:01:24.663Z,100.00
2022-10-11T05:03:54.474Z,100.00
2022-10-11T05:06:27.217Z,100.00
2022-10-11T05:09:01.481Z,100.00
2022-10-11T05:11:31.319Z,100.00
2022-10-11T05:14:12.814Z,100.00
2022-10-11T05:16:42.633Z,100.00
2022-10-11T05:19:12.390Z,100.00
2022-10-11T05:21:44.730Z,100.00
2022-10-11T05:24:14.471Z,100.00
2022-10-11T05:26:44.143Z,100.00
2022-10-11T05:29:13.872Z,100.00
2022-10-11T05:31:43.584Z,100.00
2022-10-11T05:34:13.512Z,100.00
2022-10-11T05:36:45.826Z,100.00
2022-10-11T05:39:16.018Z,100.00
2022-10-11T05:41:45.706Z,100.00
2022-10-11T05:44:15.421Z,100.00
2022-10-11T05:46:45.129Z,100.00
2022-10-11T05:49:14.871Z,100.00
2022-10-11T05:51:47.114Z,100.00
2022-10-11T05:54:16.860Z,100.00
2022-10-11T05:56:46.707Z,100.00
2022-10-11T05:59:16.409Z,100.00
2022-10-11T06:01:46.090Z,100.00
2022-10-11T06:04:16.825Z,100.00
2022-10-11T06:06:50.425Z,100.00
2022-10-11T06:09:20.096Z,100.00
2022-10-11T06:11:49.924Z,100.00
2022-10-11T06:14:19.559Z,100.00
2022-10-11T06:16:49.173Z,100.00
2022-10-11T06:19:18.831Z,100.00
2022-10-11T06:21:51.093Z,100.00
2022-10-11T06:24:20.932Z,100.00
2022-10-11T06:26:51.985Z,100.00
2022-10-11T06:29:22.196Z,100.00
2022-10-11T06:31:52.208Z,100.00
2022-10-11T06:34:21.947Z,100.00
2022-10-11T06:36:54.606Z,100.00
2022-10-11T06:39:24.305Z,100.00
2022-10-11T06:41:54.103Z,100.00
2022-10-11T06:44:23.827Z,100.00
2022-10-11T06:46:53.518Z,100.00
2022-10-11T06:49:23.729Z,100.00
2022-10-11T06:51:56.154Z,100.00
2022-10-11T06:54:26.243Z,100.00
2022-10-11T06:56:56.120Z,100.00
2022-10-11T06:59:26.470Z,100.00
2022-10-11T07:01:56.201Z,100.00
2022-10-11T07:04:25.951Z,100.00
2022-10-11T07:06:58.251Z,100.00
2022-10-11T07:09:28.351Z,100.00
2022-10-11T07:11:57.996Z,100.00
2022-10-11T07:14:27.811Z,100.00
2022-10-11T07:16:57.552Z,100.00
2022-10-11T07:19:27.496Z,100.00
2022-10-11T07:21:59.944Z,100.00
2022-10-11T07:24:29.967Z,100.00
2022-10-11T07:27:00.349Z,100.00
2022-10-11T07:29:30.059Z,100.00
2022-10-11T07:31:59.857Z,100.00
2022-10-11T07:34:29.657Z,100.00
2022-10-11T07:37:03.309Z,100.00
2022-10-11T07:39:34.103Z,100.00
2022-10-11T07:42:04.817Z,100.00
2022-10-11T07:44:35.196Z,100.00
2022-10-11T07:47:09.003Z,100.00
2022-10-11T07:49:40.718Z,100.00
2022-10-11T07:52:13.086Z,100.00
2022-10-11T07:54:42.920Z,100.00
2022-10-11T07:57:12.670Z,100.00
2022-10-11T07:59:49.300Z,100.00
2022-10-11T08:02:20.098Z,100.00
2022-10-11T08:07:46.233Z,100.00
2022-10-11T08:10:16.074Z,100.00
2022-10-11T08:12:45.799Z,100.00
2022-10-11T08:15:19.305Z,100.00
2022-10-11T08:18:15.150Z,100.00
2022-10-11T08:20:45.557Z,100.00
2022-10-11T08:23:18.892Z,100.00
2022-10-11T08:25:50.528Z,100.00
2022-10-11T08:28:21.024Z,100.00
2022-10-11T08:30:52.185Z,100.00
2022-10-11T08:33:23.315Z,100.00
2022-10-11T08:35:53.562Z,100.00
2022-10-11T08:38:26.593Z,100.00
2022-10-11T08:40:59.606Z,100.00
2022-10-11T08:43:39.706Z,100.00
2022-10-11T08:46:13.027Z,100.00
2022-10-11T08:48:46.460Z,100.00
2022-10-11T08:51:22.737Z,100.00
2022-10-11T08:54:02.397Z,100.00
2022-10-11T08:56:41.521Z,100.00
2022-10-11T08:59:24.060Z,100.00
2022-10-11T09:02:02.262Z,100.00
2022-10-11T09:04:32.610Z,100.00
2022-10-11T09:07:10.622Z,100.00
2022-10-11T09:10:02.031Z,100.00
2022-10-11T09:12:43.568Z,100.00
2022-10-11T09:15:21.112Z,100.00
2022-10-11T09:18:06.908Z,100.00
2022-10-11T09:20:51.986Z,100.00
2022-10-11T09:23:38.052Z,100.00
2022-10-11T09:26:17.393Z,100.00
2022-10-11T09:29:01.254Z,100.00
2022-10-11T09:31:31.885Z,100.00
2022-10-11T09:34:09.143Z,100.00
2022-10-11T09:36:44.841Z,100.00
2022-10-11T09:39:31.983Z,100.00
2022-10-11T09:42:31.169Z,100.00
2022-10-11T09:45:20.442Z,100.00
2022-10-11T09:47:52.351Z,100.00
2022-10-11T09:50:31.023Z,100.00
2022-10-11T09:53:03.417Z,100.00
2022-10-11T09:55:36.101Z,100.00
2022-10-11T09:58:26.722Z,100.00
2022-10-11T10:01:07.388Z,100.00
2022-10-11T10:03:39.530Z,100.00
2022-10-11T10:06:11.829Z,100.00
2022-10-11T10:08:43.124Z,100.00
2022-10-11T10:11:14.244Z,100.00
2022-10-11T10:13:50.126Z,100.00
2022-10-11T10:16:28.747Z,100.00
2022-10-11T10:19:00.776Z,100.00
2022-10-11T10:21:33.265Z,100.00
2022-10-11T10:24:07.211Z,100.00
2022-10-11T10:26:37.580Z,100.00
2022-10-11T10:29:20.536Z,100.00
2022-10-11T10:34:59.560Z,100.00
2022-10-11T10:37:35.226Z,100.00
2022-10-11T10:40:09.296Z,100.00
2022-10-11T10:42:53.353Z,100.00
2022-10-11T10:50:05.327Z,100.00
2022-10-11T10:53:12.587Z,100.00
2022-10-11T10:55:47.054Z,100.00
2022-10-11T10:58:39.606Z,100.00
2022-10-11T11:01:16.338Z,100.00
2022-10-11T11:03:49.677Z,100.00
2022-10-11T11:06:32.822Z,100.00
2022-10-11T11:09:21.561Z,100.00
2022-10-11T11:12:03.332Z,100.00
2022-10-11T11:14:46.076Z,100.00
2022-10-11T11:17:28.131Z,100.00
2022-10-11T11:20:11.593Z,100.00
2022-10-11T11:22:52.423Z,100.00
2022-10-11T11:25:33.263Z,100.00
2022-10-11T11:28:17.758Z,100.00
2022-10-11T11:30:57.696Z,100.00
2022-10-11T11:33:43.064Z,100.00
2022-10-11T11:36:18.989Z,100.00
2022-10-11T11:38:54.168Z,100.00
2022-10-11T11:41:31.517Z,100.00
2022-10-11T11:44:05.281Z,100.00
2022-10-11T11:46:38.540Z,100.00
2022-10-11T11:49:18.291Z,100.00
2022-10-11T11:51:49.265Z,100.00
2022-10-11T11:54:29.769Z,100.00
2022-10-11T11:57:10.626Z,100.00
2022-10-11T11:59:50.730Z,100.00
2022-10-11T12:02:53.764Z,100.00
2022-10-11T12:05:26.888Z,100.00
2022-10-11T12:08:00.913Z,100.00
2022-10-11T12:10:35.442Z,100.00
2022-10-11T12:13:27.219Z,100.00
2022-10-11T12:16:12.516Z,100.00
2022-10-11T12:18:54.951Z,100.00
2022-10-11T12:21:32.826Z,100.00
2022-10-11T12:24:03.785Z,100.00
2022-10-11T12:26:39.090Z,100.00
2022-10-11T12:29:29.245Z,100.00
2022-10-11T12:32:29.145Z,100.00
2022-10-11T12:35:28.634Z,100.00
2022-10-11T12:38:07.831Z,100.00
2022-10-11T12:40:42.511Z,100.00
2022-10-11T12:43:26.745Z,100.00
2022-10-11T12:45:59.191Z,100.00
2022-10-11T12:48:48.753Z,100.00
2022-10-11T12:51:30.958Z,100.00
2022-10-11T12:54:36.890Z,100.00
2022-10-11T12:57:35.946Z,98.22
2022-10-11T13:00:20.775Z,97.73
2022-10-11T13:02:53.332Z,97.97
2022-10-11T13:05:27.423Z,96.20
2022-10-11T13:08:00.576Z,97.64
2022-10-11T13:10:33.636Z,98.12
2022-10-11T13:13:04.843Z,96.08
2022-10-11T13:15:34.991Z,95.41
2022-10-11T13:18:07.419Z,94.85
2022-10-11T13:20:40.305Z,93.31
2022-10-11T13:23:24.757Z,91.17
2022-10-11T13:25:55.753Z,90.25
2022-10-11T13:28:26.499Z,89.07
2022-10-11T13:30:59.501Z,88.81
2022-10-11T13:33:35.225Z,87.69
2022-10-11T13:36:08.947Z,86.83
2022-10-11T13:38:40.815Z,87.78
2022-10-11T13:41:12.860Z,88.05
2022-10-11T13:43:43.028Z,89.08
2022-10-11T13:46:22.795Z,88.26
2022-10-11T13:49:07.380Z,89.05
2022-10-11T13:51:39.459Z,89.49
2022-10-11T13:54:13.773Z,90.11
2022-10-11T13:56:48.426Z,89.94
2022-10-11T13:59:22.227Z,90.51
2022-10-11T14:01:56.718Z,90.43
2022-10-11T14:04:30.246Z,89.92
2022-10-11T14:07:02.634Z,88.48
2022-10-11T14:09:35.906Z,88.34
2022-10-11T14:12:31.148Z,87.78
2022-10-11T14:15:01.907Z,87.40
2022-10-11T14:17:43.414Z,89.04
2022-10-11T14:20:23.856Z,90.46
2022-10-11T14:22:53.946Z,88.85
2022-10-11T14:25:24.569Z,91.73
2022-10-11T14:27:54.502Z,91.47
2022-10-11T14:30:27.603Z,93.41
2022-10-11T14:33:02.101Z,94.96
2022-10-11T14:35:35.694Z,95.92
2022-10-11T14:38:05.448Z,94.14
2022-10-11T14:40:35.413Z,95.49
2022-10-11T14:43:05.226Z,95.79
2022-10-11T14:45:34.993Z,94.19
2022-10-11T14:48:04.771Z,93.81
2022-10-11T14:50:42.654Z,94.98
2022-10-11T14:53:13.843Z,95.18
2022-10-11T14:55:44.758Z,95.06
2022-10-11T14:58:18.475Z,95.76
2022-10-11T15:00:50.495Z,94.74
2022-10-11T15:03:20.521Z,94.58
2022-10-11T15:05:53.407Z,94.59
2022-10-11T15:08:23.295Z,94.38
2022-10-11T15:10:53.734Z,94.92
2022-10-11T15:13:23.664Z,95.73
2022-10-11T15:15:53.389Z,95.66
2022-10-11T15:18:23.437Z,95.74
2022-10-11T15:20:56.250Z,95.21
2022-10-11T15:23:26.255Z,95.39
2022-10-11T15:25:56.014Z,95.08
2022-10-11T15:28:29.566Z,96.71
2022-10-11T15:30:59.876Z,96.04
2022-10-11T15:33:29.917Z,94.85
2022-10-11T15:36:02.604Z,96.64
2022-10-11T15:38:32.939Z,96.06
2022-10-11T15:41:03.912Z,96.04
2022-10-11T15:43:34.018Z,96.05
2022-10-11T15:46:05.414Z,96.88
2022-10-11T15:48:35.474Z,96.64
2022-10-11T15:51:08.911Z,96.69
2022-10-11T15:53:38.715Z,97.27
2022-10-11T15:56:10.450Z,97.01
2022-10-11T15:58:42.436Z,98.13
2022-10-11T16:01:16.645Z,98.35
2022-10-11T16:03:47.210Z,97.72
2022-10-11T16:06:20.275Z,98.86
2022-10-11T16:08:50.442Z,98.36
2022-10-11T16:11:20.378Z,98.43
2022-10-11T16:13:51.667Z,98.75
2022-10-11T16:16:21.913Z,98.60
2022-10-11T16:18:53.025Z,98.97
2022-10-11T16:21:25.687Z,99.32
2022-10-11T16:23:55.374Z,99.59
2022-10-11T16:26:25.119Z,100.00
2022-10-11T16:28:56.878Z,100.00
2022-10-11T16:31:26.706Z,100.00
2022-10-11T16:33:57.240Z,100.00
2022-10-11T16:36:36.620Z,100.00
2022-10-11T16:39:09.830Z,100.00
2022-10-11T16:41:39.861Z,100.00
2022-10-11T16:44:14.797Z,100.00
2022-10-11T16:46:47.967Z,100.00
2022-10-11T16:49:18.258Z,100.00
2022-10-11T16:51:50.984Z,100.00
2022-10-11T16:54:21.411Z,100.00
2022-10-11T16:56:52.098Z,100.00
2022-10-11T16:59:22.878Z,100.00
2022-10-11T17:01:52.779Z,100.00
2022-10-11T17:04:22.536Z,100.00
2022-10-11T17:06:55.372Z,100.00
2022-10-11T17:09:25.324Z,100.00
2022-10-11T17:11:55.143Z,100.00
2022-10-11T17:14:24.823Z,100.00
2022-10-11T17:16:54.603Z,100.00
2022-10-11T17:19:24.255Z,100.00
2022-10-11T17:21:56.700Z,100.00
2022-10-11T17:24:26.666Z,100.00
2022-10-11T17:26:56.595Z,100.00
2022-10-11T17:29:26.403Z,100.00
2022-10-11T17:31:56.274Z,100.00
2022-10-11T17:34:26.192Z,100.00
2022-10-11T17:36:58.718Z,100.00
2022-10-11T17:39:28.559Z,100.00
2022-10-11T17:41:58.552Z,100.00
2022-10-11T17:44:28.364Z,100.00
2022-10-11T17:46:58.053Z,100.00
2022-10-11T17:49:27.825Z,100.00
2022-10-11T17:52:00.115Z,100.00
2022-10-11T17:54:30.011Z,100.00
2022-10-11T17:56:59.972Z,100.00
2022-10-11T17:59:32.928Z,100.00
2022-10-11T18:02:02.771Z,100.00
2022-10-11T18:04:32.497Z,100.00
2022-10-11T18:07:04.825Z,100.00
2022-10-11T18:09:35.253Z,100.00
2022-10-11T18:12:04.999Z,100.00
2022-10-11T18:14:34.867Z,100.00
2022-10-11T18:17:04.622Z,100.00
2022-10-11T18:19:34.356Z,100.00
2022-10-11T18:22:07.387Z,100.00
2022-10-11T18:24:37.748Z,100.00
2022-10-11T18:27:07.640Z,100.00
2022-10-11T18:29:37.299Z,100.00
2022-10-11T18:32:07.130Z,100.00
2022-10-11T18:34:36.789Z,100.00
2022-10-11T18:37:09.034Z,100.00
2022-10-11T18:39:39.049Z,100.00
2022-10-11T18:42:09.881Z,100.00
2022-10-11T18:44:39.724Z,100.00
2022-10-11T18:47:09.484Z,100.00
2022-10-11T18:49:39.203Z,100.00
2022-10-11T18:52:11.581Z,100.00
2022-10-11T18:54:41.542Z,100.00
2022-10-11T18:57:11.283Z,100.00
2022-10-11T18:59:41.144Z,100.00
2022-10-11T19:02:13.206Z,100.00
2022-10-11T19:04:43.139Z,100.00
2022-10-11T19:07:15.482Z,100.00
2022-10-11T19:09:47.096Z,100.00
2022-10-11T19:12:17.602Z,100.00
2022-10-11T19:14:47.408Z,100.00
2022-10-11T19:17:17.108Z,100.00
2022-10-11T19:19:48.692Z,100.00
2022-10-11T19:22:20.987Z,100.00
2022-10-11T19:24:50.711Z,100.00
2022-10-11T19:27:20.479Z,100.00
2022-10-11T19:29:50.907Z,100.00
2022-10-11T19:32:20.631Z,100.00
2022-10-11T19:34:50.349Z,100.00
2022-10-11T19:37:22.660Z,100.00
2022-10-11T19:39:52.422Z,100.00
2022-10-11T19:42:22.278Z,100.00
2022-10-11T19:44:51.932Z,100.00
2022-10-11T19:47:21.583Z,100.00
2022-10-11T19:49:51.248Z,100.00
2022-10-11T19:52:23.523Z,100.00
2022-10-11T19:54:53.369Z,100.00
2022-10-11T19:57:23.187Z,100.00
2022-10-11T19:59:52.859Z,100.00
2022-10-11T20:02:22.514Z,100.00
2022-10-11T20:04:53.300Z,100.00
2022-10-11T20:07:25.703Z,100.00
2022-10-11T20:09:55.360Z,100.00
2022-10-11T20:12:28.926Z,100.00
2022-10-11T20:14:58.857Z,100.00
2022-10-11T20:17:48.415Z,100.00
2022-10-11T20:20:19.319Z,100.00
2022-10-11T20:22:53.650Z,100.00
2022-10-11T20:25:23.619Z,100.00
2022-10-11T20:27:53.358Z,100.00
2022-10-11T20:30:23.092Z,100.00
2022-10-11T20:32:53.014Z,100.00
2022-10-11T20:35:22.801Z,100.00
2022-10-11T20:37:55.346Z,100.00
2022-10-11T20:40:25.270Z,100.00
2022-10-11T20:42:55.103Z,100.00
2022-10-11T20:45:26.040Z,100.00
2022-10-11T20:47:56.353Z,100.00
2022-10-11T20:50:26.262Z,100.00
2022-10-11T20:52:58.729Z,100.00
2022-10-11T20:55:28.581Z,100.00
2022-10-11T20:57:58.396Z,100.00
2022-10-11T21:00:28.605Z,100.00
2022-10-11T21:03:01.408Z,100.00
2022-10-11T21:05:31.393Z,100.00
2022-10-11T21:08:06.405Z,100.00
2022-10-11T21:10:36.522Z,100.00
2022-10-11T21:13:07.411Z,100.00
2022-10-11T21:15:37.156Z,100.00
2022-10-11T21:18:07.150Z,100.00
2022-10-11T21:20:42.212Z,100.00
2022-10-11T21:23:16.096Z,100.00
2022-10-11T21:25:45.767Z,100.00
2022-10-11T21:28:15.573Z,100.00
2022-10-11T21:30:45.426Z,100.00
2022-10-11T21:33:15.149Z,100.00
2022-10-11T21:35:44.847Z,100.00
2022-10-11T21:38:17.147Z,100.00
2022-10-11T21:40:47.120Z,100.00
2022-10-11T21:43:16.781Z,100.00
2022-10-11T21:45:46.488Z,100.00
2022-10-11T21:48:16.159Z,100.00
2022-10-11T21:50:45.831Z,100.00
2022-10-11T21:53:18.114Z,100.00
2022-10-11T21:55:47.872Z,100.00
2022-10-11T21:58:17.565Z,100.00
2022-10-11T22:00:49.887Z,100.00
2022-10-11T22:03:19.747Z,100.00
2022-10-11T22:05:50.642Z,100.00
2022-10-11T22:08:22.956Z,100.00
2022-10-11T22:10:56.769Z,100.00
2022-10-11T22:13:27.042Z,100.00
2022-10-11T22:15:57.540Z,100.00
2022-10-11T22:18:32.230Z,100.00
2022-10-11T22:21:07.781Z,100.00
2022-10-11T22:23:40.051Z,100.00
2022-10-11T22:26:11.939Z,100.00
2022-10-11T22:28:41.941Z,100.00
2022-10-11T22:31:13.171Z,100.00
2022-10-11T22:33:42.983Z,100.00
2022-10-11T22:36:16.663Z,100.00
2022-10-11T22:38:49.714Z,100.00
2022-10-11T22:41:19.383Z,100.00
2022-10-11T22:43:49.002Z,100.00
2022-10-11T22:46:18.784Z,100.00
2022-10-11T22:48:48.449Z,100.00
2022-10-11T22:51:18.164Z,100.00
2022-10-11T22:53:50.470Z,100.00
2022-10-11T22:56:20.097Z,100.00
2022-10-11T22:58:49.720Z,100.00
2022-10-11T23:01:19.423Z,100.00
2022-10-11T23:03:51.194Z,100.00
2022-10-11T23:06:20.960Z,100.00
2022-10-11T23:08:53.244Z,100.00
2022-10-11T23:11:22.946Z,100.00
2022-10-11T23:13:52.594Z,100.00
2022-10-11T23:16:22.206Z,100.00
2022-10-11T23:18:55.140Z,100.00
2022-10-11T23:21:25.052Z,100.00
2022-10-11T23:23:57.976Z,100.00
2022-10-11T23:26:27.542Z,100.00
2022-10-11T23:28:58.057Z,100.00
2022-10-11T23:31:27.735Z,100.00
2022-10-11T23:33:57.522Z,100.00
2022-10-11T23:36:28.577Z,100.00
2022-10-11T23:39:01.838Z,100.00
2022-10-11T23:41:33.104Z,100.00
2022-10-11T23:44:02.917Z,100.00
2022-10-11T23:46:32.628Z,100.00
2022-10-11T23:49:02.308Z,100.00
2022-10-11T23:51:32.027Z,100.00
2022-10-11T23:54:04.311Z,100.00
2022-10-11T23:56:34.232Z,100.00
2022-10-11T23:59:03.949Z,100.00
